CWSW

Sparwood / Elk Valley Airport

Sparwood/Elk Valley, Canada

CWSW 230100Z 13007KT 20SM BKN051 OVC065 07/M01 A3010 RMK SC6SC2 LAST STFD OBS/NEXT 231300Z SLP220

Observed Flight Rules
Sep-23 @ 01:00 UTC (an hour ago)
 
Visual Flight Rules
Wind Visibility Clouds
130° at 7 knots 20 miles
  • Broken at 5,100' AGL
  • Overcast at 6,500' AGL
Temperatures Readings
Current 7°C / 45°F
Dewpoint -1°C / 30°F
Humidity 57%
Altimeter 30.1" Hg
Pressure 1022 hPa
Elevation 1138
Observed Flight Rules
Sep-23 @ 01:00 UTC
(an hour ago)
 
VFR
Wind Visibility
130° at 7 knots 20 miles
Clouds
  • Broken at 5,100' AGL
  • Overcast at 6,500' AGL
Temperature Dewpoint
7°C / 45°F -1°C / 30°F
Humidity Altimeter Pressure
57% 30.1" Hg 1022 hPa